Latest Weather Observations for Lake Macquarie - Cooranbong

IDN60801

Issued at 10:12 pm EST Thursday 16 August 2018 (issued every 10 minutes, with the page automatically refreshed every 10 minutes)

About weather observations | Map of weather stations | Latest weather observations for NSW | Other Formats
Station Details ID: 061412 Name: LAKE MACQUARIE AWS Lat: -33.09 Lon: 151.46 Height: 6.0 m
Data from the previous 72 hours. | See also: Recent months at Lake Macquarie - Cooranbong
Date/Time
EST
Temp
°C
App
Temp
°C
Dew
Point
°C
Rel
Hum
%
Delta-T
°C
Wind Press
QNH
hPa
Press
MSL
hPa
Rain since
9am
mm
Dir  Spd
km/h
Gust
km/h
Spd
kts
Gust
kts
16/10:00pm 6.7 5.7 5.7 93 0.4 CALM 0 0 0 0 1014.7 1014.7 0.0
16/09:30pm 7.1 6.2 5.9 92 0.5 CALM 0 0 0 0 1014.5 1014.5 0.0
16/09:00pm 7.7 6.9 6.3 91 0.6 CALM 0 0 0 0 1014.3 1014.3 0.0
16/08:30pm 7.9 7.0 6.0 88 0.9 CALM 0 0 0 0 1014.0 1014.0 0.0
16/08:00pm 8.7 7.9 6.7 87 0.9 CALM 0 0 0 0 1013.7 1013.7 0.0
16/07:30pm 9.4 8.6 6.5 82 1.3 CALM 0 0 0 0 1013.4 1013.4 0.0
16/07:00pm 10.3 9.6 6.8 79 1.6 CALM 0 0 0 0 1013.3 1013.3 0.0
16/06:30pm 11.6 10.9 7.1 74 2.2 CALM 0 0 0 0 1012.8 1012.8 0.0
16/06:00pm 12.8 12.1 6.8 67 2.9 CALM 0 0 0 0 1012.1 1012.1 0.0
16/05:30pm 15.0 14.2 6.6 57 4.1 CALM 0 0 0 0 1011.6 1011.6 0.0
16/05:00pm 16.7 14.5 6.2 50 5.1 ESE 7 13 4 7 1011.0 1011.0 0.0
16/04:30pm 17.6 14.8 7.1 50 5.2 ESE 11 15 6 8 1010.7 1010.7 0.0
16/04:00pm 18.3 16.2 6.8 47 5.7 ESE 7 13 4 7 1010.4 1010.4 0.0
16/03:30pm 18.7 16.4 7.5 48 5.7 ESE 9 19 5 10 1010.3 1010.3 0.0
16/03:00pm 19.1 16.2 6.6 44 6.3 E 11 17 6 9 1010.0 1010.0 0.0
16/02:30pm 19.7 16.6 7.4 45 6.3 ESE 13 20 7 11 1009.7 1009.7 0.0
16/02:00pm 20.0 17.4 7.7 45 6.3 ESE 11 22 6 12 1009.4 1009.4 0.0
16/01:30pm 20.6 18.0 7.6 43 6.7 E 11 17 6 9 1009.4 1009.4 0.0
16/01:00pm 20.2 18.3 7.6 44 6.5 E 7 15 4 8 1009.6 1009.6 0.0
16/12:30pm 20.0 17.7 7.4 44 6.4 SE 9 15 5 8 1010.0 1010.0 0.0
16/12:00pm 20.1 17.5 7.8 45 6.3 ESE 11 20 6 11 1010.4 1010.4 0.0
16/11:30am 20.0 17.2 8.7 48 5.9 SE 13 20 7 11 1010.9 1010.9 0.0
16/11:00am 19.6 16.7 8.0 47 6.0 SE 13 24 7 13 1011.0 1011.0 0.0
16/10:30am 22.0 19.7 4.6 32 8.5 NE 6 9 3 5 1011.0 1011.0 0.0
16/10:00am 20.8 18.6 3.1 31 8.4 E 4 7 2 4 1011.1 1011.1 0.0
16/09:30am 19.1 17.6 4.8 39 6.9 NNE 2 4 1 2 1011.3 1011.3 0.0
16/09:00am 15.8 14.6 4.8 48 5.2 CALM 0 0 0 0 1011.4 1011.4 0.0
16/08:30am 11.0 9.9 5.1 67 2.7 CALM 0 0 0 0 1011.2 1011.2 0.0
16/08:00am 7.8 6.3 2.9 71 2.1 CALM 0 0 0 0 1011.2 1011.2 0.0
16/07:30am 7.3 5.7 2.6 72 2.0 CALM 0 0 0 0 1010.7 1010.7 0.0
16/07:00am 7.5 5.9 2.4 70 2.1 CALM 0 0 0 0 1010.5 1010.5 0.0
16/06:30am 7.5 5.8 1.6 66 2.4 CALM 0 0 0 0 1010.2 1010.2 0.0
16/06:00am 8.1 6.0 1.9 65 2.6 NW 2 4 1 2 1010.1 1010.1 0.0
16/05:30am 8.8 7.1 1.7 61 2.9 CALM 0 0 0 0 1009.7 1009.7 0.0
16/05:00am 9.7 8.0 1.8 58 3.3 CALM 0 0 0 0 1009.3 1009.3 0.0
16/04:30am 10.7 8.5 1.3 52 3.9 NW 2 4 1 2 1009.2 1009.2 0.0
16/04:00am 10.9 9.0 0.6 49 4.2 CALM 0 0 0 0 1009.3 1009.3 0.0
16/03:30am 12.1 10.1 0.2 44 4.9 CALM 0 0 0 0 1009.2 1009.2 0.0
16/03:00am 13.7 11.2 -0.7 37 5.9 N 2 7 1 4 1009.0 1009.0 0.0
16/02:30am 14.9 12.0 -1.2 33 6.6 NNW 4 9 2 5 1009.2 1009.2 0.0
16/02:00am 15.9 13.7 -1.2 31 7.1 CALM 0 7 0 4 1009.8 1009.8 0.0
16/01:30am 18.1 14.3 -3.9 22 8.8 N 7 11 4 6 1009.9 1009.9 0.0
16/01:00am 17.0 12.9 -3.1 25 8.1 NNE 9 17 5 9 1010.0 1010.0 0.0
16/12:30am 16.9 13.5 -1.7 28 7.7 NNE 6 7 3 4 1010.1 1010.1 0.0
16/12:00am 19.4 15.7 -4.8 19 9.7 NW 6 13 3 7 1010.4 1010.4 0.0
 
Date/Time
EST
Temp
°C
App
Temp
°C
Dew
Point
°C
Rel
Hum
%
Delta-T
°C
Wind Press
QNH
hPa
Press
MSL
hPa
Rain since
9am
mm
Dir  Spd
km/h
Gust
km/h
Spd
kts
Gust
kts
15/11:30pm 19.0 15.3 -4.4 20 9.4 NW 6 13 3 7 1010.5 1010.5 0.0
15/11:00pm 19.1 14.8 -5.0 19 9.5 WNW 9 22 5 12 1010.4 1010.4 0.0
15/10:30pm 19.3 14.9 -5.6 18 9.7 NW 9 19 5 10 1010.1 1010.1 0.0
15/10:00pm 19.4 15.3 -7.0 16 10.1 NW 7 24 4 13 1010.2 1010.2 0.0
15/09:30pm 19.1 14.6 -7.3 16 10.0 NW 9 26 5 14 1010.3 1010.3 0.0
15/09:00pm 19.4 14.4 -7.9 15 10.2 WNW 11 20 6 11 1010.6 1010.6 0.0
15/08:30pm 19.9 14.9 -8.4 14 10.5 NW 11 24 6 13 1010.8 1010.8 0.0
15/08:00pm 20.1 14.7 -8.2 14 10.6 WNW 13 24 7 13 1010.8 1010.8 0.0
15/07:30pm 19.8 15.6 -7.5 15 10.3 WNW 7 15 4 8 1010.9 1010.9 0.0
15/07:00pm 20.0 15.4 -7.4 15 10.4 NW 9 20 5 11 1010.4 1010.4 0.0
15/06:30pm 20.5 16.0 -7.0 15 10.6 NW 9 20 5 11 1010.4 1010.4 0.0
15/06:00pm 20.9 16.4 -6.7 15 10.8 NW 9 19 5 10 1010.6 1010.6 0.0
15/05:30pm 21.2 16.4 -6.4 15 10.8 NNW 11 24 6 13 1010.2 1010.2 0.0
15/05:00pm 22.5 17.6 -7.3 13 11.7 NW 11 26 6 14 1010.5 1010.5 0.0
15/04:30pm 23.4 18.6 -6.5 13 12.0 NW 11 28 6 15 1010.1 1010.1 0.0
15/04:00pm 24.3 18.1 -9.2 10 12.9 WNW 17 32 9 17 1010.1 1010.1 0.0
15/03:30pm 24.7 18.5 -8.9 10 13.0 NW 17 35 9 19 1010.2 1010.2 0.0
15/03:00pm 24.8 19.1 -7.6 11 12.9 NW 15 33 8 18 1010.3 1010.3 0.0
15/02:30pm 24.6 17.9 -7.8 11 12.8 NW 20 37 11 20 1010.7 1010.7 0.0
15/02:00pm 24.6 17.9 -7.8 11 12.8 WNW 20 46 11 25 1011.1 1011.1 0.0
15/01:30pm 24.3 17.6 -8.0 11 12.7 WNW 20 37 11 20 1011.5 1011.5 0.0
15/01:15pm 24.1 15.8 -9.4 10 12.8 W 28 54 15 29 1011.8 1011.8 0.0
15/01:00pm 24.2 16.7 -8.1 11 12.7 W 24 46 13 25 1011.9 1011.9 0.0
15/12:30pm 24.1 17.4 -8.2 11 12.6 W 20 41 11 22 1012.3 1012.3 0.0
15/12:00pm 24.1 19.4 -1.7 18 11.4 NW 13 32 7 17 1013.0 1013.0 0.0
15/11:30am 22.5 18.1 0.4 23 10.0 NW 13 28 7 15 1013.6 1013.6 0.0
15/11:00am 21.7 17.4 0.8 25 9.5 NNW 13 28 7 15 1014.1 1014.1 0.0
15/10:30am 20.7 17.4 2.5 30 8.5 NNW 9 17 5 9 1014.3 1014.3 0.0
15/10:00am 19.3 15.9 1.8 31 8.0 NW 9 19 5 10 1014.8 1014.8 0.0
15/09:30am 18.7 14.7 0.8 30 7.9 NW 11 22 6 12 1014.8 1014.8 0.0
15/09:00am 17.9 13.5 0.6 31 7.6 NW 13 24 7 13 1014.9 1014.9 0.0
15/08:30am 17.5 13.4 -0.2 30 7.6 NW 11 22 6 12 1015.1 1015.1 0.0
15/08:00am 16.9 12.3 -0.8 30 7.5 NNW 13 20 7 11 1014.9 1014.9 0.0
15/07:30am 16.6 11.8 -2.5 27 7.8 NNW 13 24 7 13 1014.7 1014.7 0.0
15/07:00am 15.8 11.8 -2.2 29 7.3 NNW 9 19 5 10 1014.7 1014.7 0.0
15/06:30am 16.2 11.8 -2.3 28 7.5 NNW 11 22 6 12 1014.9 1014.9 0.0
15/06:00am 16.6 13.0 0.3 33 7.0 NNW 9 19 5 10 1015.0 1015.0 0.0
15/05:30am 16.0 12.7 0.2 34 6.8 NW 7 17 4 9 1015.0 1015.0 0.0
15/05:00am 16.7 11.4 -0.5 31 7.3 NW 17 28 9 15 1014.8 1014.8 0.0
15/04:30am 15.4 11.6 -0.8 33 6.7 WNW 9 17 5 9 1015.0 1015.0 0.0
15/04:00am 15.5 11.6 0.9 37 6.3 NW 11 22 6 12 1015.1 1015.1 0.0
15/03:30am 10.6 8.2 4.3 65 2.8 NW 6 19 3 10 1015.3 1015.3 0.0
15/03:00am 5.6 4.3 4.2 91 0.6 CALM 0 0 0 0 1016.0 1016.0 0.0
15/02:30am 5.3 4.0 4.0 91 0.5 CALM 0 7 0 4 1016.7 1016.7 0.0
15/02:00am 5.9 3.9 4.2 89 0.7 NE 4 6 2 3 1017.2 1017.2 0.0
15/01:30am 6.5 5.4 5.1 91 0.6 CALM 0 0 0 0 1017.6 1017.6 0.0
15/01:00am 6.4 5.3 5.0 91 0.6 CALM 0 0 0 0 1017.8 1017.8 0.0
15/12:30am 6.2 4.6 4.7 90 0.6 N 2 6 1 3 1017.8 1017.8 0.0
15/12:00am 6.2 4.2 4.5 89 0.7 N 4 6 2 3 1018.0 1018.0 0.0
 
Date/Time
EST
Temp
°C
App
Temp
°C
Dew
Point
°C
Rel
Hum
%
Delta-T
°C
Wind Press
QNH
hPa
Press
MSL
hPa
Rain since
9am
mm
Dir  Spd
km/h
Gust
km/h
Spd
kts
Gust
kts
14/11:30pm 4.9 2.4 3.6 91 0.5 N 6 7 3 4 1018.2 1018.2 0.0
14/11:00pm 5.3 3.7 4.3 93 0.4 N 2 6 1 3 1018.6 1018.6 0.0
14/10:30pm 5.7 4.5 4.5 92 0.5 CALM 0 0 0 0 1018.8 1018.8 0.0
14/10:00pm 6.3 5.2 5.3 93 0.4 CALM 0 0 0 0 1018.7 1018.7 0.0
14/09:30pm 6.3 5.2 5.1 92 0.5 CALM 0 2 0 1 1018.9 1018.9 0.0
14/09:00pm 6.5 5.0 5.1 91 0.6 N 2 6 1 3 1019.0 1019.0 0.0
14/08:30pm 8.0 7.2 6.6 91 0.6 CALM 0 0 0 0 1019.0 1019.0 0.0
14/08:00pm 8.6 7.9 6.9 89 0.8 CALM 0 0 0 0 1019.0 1019.0 0.0
14/07:30pm 9.4 8.8 7.3 87 1.0 CALM 0 0 0 0 1019.0 1019.0 0.0
14/07:00pm 10.4 9.9 7.8 84 1.2 CALM 0 0 0 0 1018.6 1018.6 0.0
14/06:30pm 11.3 10.8 7.8 79 1.7 CALM 0 0 0 0 1018.4 1018.4 0.0
14/06:00pm 12.9 12.4 8.0 72 2.4 CALM 0 0 0 0 1018.3 1018.3 0.0
14/05:30pm 15.0 14.6 8.3 64 3.4 CALM 0 0 0 0 1018.3 1018.3 0.0
14/05:00pm 17.4 17.0 8.3 55 4.6 CALM 0 0 0 0 1018.3 1018.3 0.0
14/04:30pm 19.1 18.3 8.1 49 5.7 SE 2 4 1 2 1018.2 1018.2 0.0
14/04:00pm 19.7 18.0 7.4 45 6.3 ESE 6 11 3 6 1018.3 1018.3 0.0
14/03:30pm 20.0 17.1 6.4 41 6.8 E 11 15 6 8 1018.6 1018.6 0.0
14/03:00pm 20.6 17.9 5.4 37 7.5 ESE 9 15 5 8 1018.9 1018.9 0.0
14/02:30pm 20.9 18.1 5.3 36 7.7 ESE 9 13 5 7 1019.1 1019.1 0.0
14/02:00pm 20.9 18.5 4.5 34 7.9 ESE 6 11 3 6 1019.4 1019.4 0.0
14/01:30pm 20.8 18.4 4.4 34 7.9 E 6 9 3 5 1019.9 1019.9 0.0
14/01:00pm 21.1 19.0 3.8 32 8.3 NE 4 9 2 5 1020.4 1020.4 0.0
14/12:30pm 20.4 18.0 2.3 30 8.4 NNE 4 7 2 4 1021.2 1021.2 0.0
14/12:00pm 19.7 16.3 1.7 30 8.2 NNE 9 15 5 8 1021.8 1021.8 0.0
14/11:30am 19.7 17.4 2.6 32 7.9 E 4 6 2 3 1022.6 1022.6 0.0
14/11:00am 18.8 16.3 1.3 31 7.8 NW 4 9 2 5 1023.3 1023.3 0.0
14/10:30am 18.0 15.4 3.1 37 6.9 NNW 6 9 3 5 1023.4 1023.4 0.0
14/10:00am 16.6 13.8 3.0 40 6.2 NW 7 11 4 6 1023.8 1023.8 0.0
14/09:30am 15.7 13.0 2.8 42 5.8 NNW 6 9 3 5 1023.8 1023.8 0.0
14/09:00am 13.8 12.4 5.7 58 3.8 NNE 2 7 1 4 1023.9 1023.9 0.0
14/08:59am 13.7 12.5 6.3 61 3.5 NNE 2 7 1 4 1023.9 1023.9 0.0
14/08:30am 8.5 7.6 6.1 85 1.1 CALM 0 0 0 0 1024.1 1024.1 0.0
14/08:00am 4.3 2.9 3.6 95 0.3 CALM 0 0 0 0 1024.0 1024.0 0.0
14/07:30am 2.4 0.7 1.8 96 0.2 CALM 0 0 0 0 1024.1 1024.1 0.0
14/07:00am 1.3 -0.6 0.6 95 0.3 CALM 0 0 0 0 1023.8 1023.8 0.0
14/06:30am 1.4 -0.5 0.5 94 0.3 CALM 0 0 0 0 1023.5 1023.5 0.0
14/06:00am 2.0 0.2 1.1 94 0.3 CALM 0 0 0 0 1023.3 1023.3 0.0
14/05:30am 2.3 0.5 1.3 93 0.4 CALM 0 0 0 0 1023.0 1023.0 0.0
14/05:00am 2.9 1.2 1.9 93 0.4 CALM 0 0 0 0 1022.9 1022.9 0.0
14/04:30am 3.0 1.3 2.0 93 0.4 CALM 0 0 0 0 1022.6 1022.6 0.0
14/04:00am 3.6 2.0 2.3 91 0.5 CALM 0 0 0 0 1022.4 1022.4 0.0
14/03:30am 3.8 2.2 2.5 91 0.5 CALM 0 0 0 0 1022.2 1022.2 0.0
14/03:00am 4.0 1.7 2.5 90 0.6 NW 4 9 2 5 1022.1 1022.1 0.0
14/02:30am 4.2 2.6 2.7 90 0.6 CALM 0 0 0 0 1022.3 1022.3 0.0
14/02:00am 4.5 3.0 2.8 89 0.7 CALM 0 0 0 0 1022.5 1022.5 0.0
14/01:30am 4.8 3.4 3.3 90 0.6 CALM 0 2 0 1 1022.5 1022.5 0.0
14/01:00am 5.2 3.7 3.2 87 0.8 CALM 0 0 0 0 1022.8 1022.8 0.0
14/12:30am 6.0 4.6 3.8 86 0.9 CALM 0 0 0 0 1022.9 1022.9 0.0
14/12:00am 6.6 5.3 4.1 84 1.1 CALM 0 4 0 2 1022.9 1022.9 0.0
 
Date/Time
EST
Temp
°C
App
Temp
°C
Dew
Point
°C
Rel
Hum
%
Delta-T
°C
Wind Press
QNH
hPa
Press
MSL
hPa
Rain since
9am
mm
Dir  Spd
km/h
Gust
km/h
Spd
kts
Gust
kts
13/11:30pm 6.7 5.3 3.7 81 1.3 CALM 0 4 0 2 1022.8 1022.8 0.0
13/11:00pm 7.2 5.5 4.0 80 1.4 NNW 2 4 1 2 1022.8 1022.8 0.0
13/10:30pm 7.1 5.1 4.6 84 1.1 WNW 4 6 2 3 1022.9 1022.9 0.0

Other Formats:

Comma delimited format used in spreadsheet applications
http://www.bom.gov.au/fwo/IDN60801/IDN60801.95767.axf

JavaScript Object Notation format (JSON) in row-major order
http://www.bom.gov.au/fwo/IDN60801/IDN60801.95767.json